createdAt,value
2023-05-19T00:00:39.813Z,100.00
2023-05-19T00:05:54.322Z,100.00
2023-05-19T00:10:58.512Z,100.00
2023-05-19T00:16:01.254Z,100.00
2023-05-19T00:21:03.479Z,100.00
2023-05-19T00:26:06.981Z,100.00
2023-05-19T00:31:08.870Z,100.00
2023-05-19T00:36:10.872Z,100.00
2023-05-19T00:41:14.285Z,100.00
2023-05-19T00:46:16.170Z,100.00
2023-05-19T00:51:18.590Z,100.00
2023-05-19T00:56:22.817Z,100.00
2023-05-19T01:01:26.868Z,100.00
2023-05-19T01:06:29.603Z,100.00
2023-05-19T01:11:32.973Z,100.00
2023-05-19T01:16:37.489Z,100.00
2023-05-19T01:22:13.084Z,100.00
2023-05-19T01:27:42.826Z,100.00
2023-05-19T01:32:48.360Z,100.00
2023-05-19T01:37:52.045Z,100.00
2023-05-19T01:42:57.673Z,100.00
2023-05-19T01:48:03.719Z,100.00
2023-05-19T01:53:05.884Z,100.00
2023-05-19T01:58:15.571Z,100.00
2023-05-19T02:03:23.274Z,100.00
2023-05-19T02:08:34.548Z,100.00
2023-05-19T02:13:39.904Z,100.00
2023-05-19T02:18:48.061Z,100.00
2023-05-19T02:23:50.718Z,100.00
2023-05-19T02:28:52.735Z,100.00
2023-05-19T02:33:56.128Z,100.00
2023-05-19T02:38:58.070Z,100.00
2023-05-19T02:44:00.126Z,100.00
2023-05-19T02:49:03.555Z,100.00
2023-05-19T02:54:05.601Z,100.00
2023-05-19T02:59:07.667Z,100.00
2023-05-19T03:04:11.242Z,100.00
2023-05-19T03:09:13.810Z,100.00
2023-05-19T03:14:15.854Z,100.00
2023-05-19T03:19:19.242Z,100.00
2023-05-19T03:24:21.280Z,100.00
2023-05-19T03:29:23.552Z,100.00
2023-05-19T03:34:26.880Z,100.00
2023-05-19T03:39:28.892Z,100.00
2023-05-19T03:44:30.912Z,100.00
2023-05-19T03:49:34.244Z,100.00
2023-05-19T03:54:36.195Z,100.00
2023-05-19T03:59:38.334Z,100.00
2023-05-19T04:04:42.133Z,100.00
2023-05-19T04:09:45.095Z,100.00
2023-05-19T04:14:47.131Z,100.00
2023-05-19T04:19:51.025Z,100.00
2023-05-19T04:24:53.090Z,100.00
2023-05-19T04:29:56.065Z,100.00
2023-05-19T04:34:59.658Z,100.00
2023-05-19T04:40:02.916Z,100.00
2023-05-19T04:45:05.635Z,100.00
2023-05-19T04:50:11.280Z,100.00
2023-05-19T04:55:13.532Z,100.00
2023-05-19T05:00:16.804Z,100.00
2023-05-19T05:05:20.173Z,100.00
2023-05-19T05:10:22.236Z,100.00
2023-05-19T05:15:24.705Z,100.00
2023-05-19T05:20:29.023Z,100.00
2023-05-19T05:25:31.851Z,99.56
2023-05-19T05:30:34.404Z,96.85
2023-05-19T05:35:38.222Z,94.08
2023-05-19T05:40:40.300Z,95.79
2023-05-19T05:45:42.363Z,93.80
2023-05-19T05:50:46.735Z,93.99
2023-05-19T05:55:49.595Z,95.89
2023-05-19T06:00:53.409Z,95.17
2023-05-19T06:05:56.857Z,91.70
2023-05-19T06:10:59.056Z,94.69
2023-05-19T06:16:02.186Z,91.87
2023-05-19T06:21:06.101Z,91.63
2023-05-19T06:26:08.165Z,90.89
2023-05-19T06:31:10.255Z,87.77
2023-05-19T06:36:13.831Z,89.44
2023-05-19T06:41:15.852Z,89.84
2023-05-19T06:46:18.129Z,86.74
2023-05-19T06:51:22.398Z,90.97
2023-05-19T06:56:24.508Z,86.20
2023-05-19T07:01:27.801Z,84.89
2023-05-19T07:06:31.351Z,87.17
2023-05-19T07:11:33.355Z,87.21
2023-05-19T07:16:35.594Z,84.41
2023-05-19T07:21:39.017Z,86.54
2023-05-19T07:26:41.363Z,87.26
2023-05-19T07:31:43.442Z,84.03
2023-05-19T07:36:46.856Z,83.86
2023-05-19T07:41:52.761Z,83.50
2023-05-19T07:46:54.765Z,84.61
2023-05-19T07:51:58.072Z,81.91
2023-05-19T07:57:00.054Z,81.19
2023-05-19T08:02:02.099Z,79.62
2023-05-19T08:07:05.552Z,82.47
2023-05-19T08:12:07.631Z,83.53
2023-05-19T08:17:09.651Z,83.60
2023-05-19T08:22:13.094Z,84.41
2023-05-19T08:27:15.597Z,84.41
2023-05-19T08:32:17.978Z,85.60
2023-05-19T08:37:21.488Z,85.60
2023-05-19T08:42:23.709Z,81.84
2023-05-19T08:47:25.909Z,100.00
2023-05-19T08:52:35.419Z,81.84
2023-05-19T08:57:38.374Z,81.84
2023-05-19T09:02:50.550Z,100.00
2023-05-19T09:08:04.900Z,100.00
2023-05-19T09:13:07.320Z,100.00
2023-05-19T09:18:11.131Z,81.84
2023-05-19T09:23:16.073Z,81.84
2023-05-19T09:28:26.294Z,81.84
2023-05-19T09:33:30.282Z,75.32
2023-05-19T09:38:35.258Z,77.26
2023-05-19T09:43:37.248Z,77.04
2023-05-19T09:48:39.347Z,77.04
2023-05-19T09:53:47.429Z,77.04
2023-05-19T09:58:50.832Z,77.04
2023-05-19T10:03:53.687Z,100.00
2023-05-19T10:08:58.614Z,100.00
2023-05-19T10:14:00.875Z,100.00
2023-05-19T10:19:04.687Z,100.00
2023-05-19T10:24:08.153Z,100.00
2023-05-19T10:29:11.282Z,100.00
2023-05-19T10:34:34.759Z,100.00
2023-05-19T10:39:42.368Z,100.00
2023-05-19T10:44:55.653Z,100.00
2023-05-19T10:50:00.764Z,100.00
2023-05-19T10:55:08.623Z,100.00
2023-05-19T11:00:27.778Z,100.00
2023-05-19T11:05:30.231Z,100.00
2023-05-19T11:10:33.694Z,100.00
2023-05-19T11:15:37.132Z,100.00
2023-05-19T11:20:39.412Z,100.00
2023-05-19T11:25:47.124Z,100.00
2023-05-19T11:30:52.576Z,100.00
2023-05-19T11:35:59.673Z,100.00
2023-05-19T11:41:03.651Z,100.00
2023-05-19T11:46:06.119Z,100.00
2023-05-19T11:51:08.267Z,100.00
2023-05-19T11:56:11.746Z,100.00
2023-05-19T12:01:13.967Z,100.00
2023-05-19T12:06:17.414Z,100.00
2023-05-19T12:11:21.201Z,100.00
2023-05-19T12:16:23.354Z,100.00
2023-05-19T12:21:25.550Z,100.00
2023-05-19T12:26:37.702Z,100.00
2023-05-19T12:31:39.845Z,100.00
2023-05-19T12:36:41.921Z,100.00
2023-05-19T12:41:46.113Z,100.00
2023-05-19T12:46:51.993Z,100.00
2023-05-19T12:51:54.377Z,100.00
2023-05-19T12:56:59.313Z,100.00
2023-05-19T13:02:02.420Z,100.00
2023-05-19T13:07:04.999Z,100.00
2023-05-19T13:12:08.505Z,100.00
2023-05-19T13:17:10.607Z,100.00
2023-05-19T13:22:12.641Z,100.00
2023-05-19T13:27:16.070Z,100.00
2023-05-19T13:32:18.104Z,100.00
2023-05-19T13:37:20.344Z,100.00
2023-05-19T13:42:23.823Z,100.00
2023-05-19T13:47:26.028Z,100.00
2023-05-19T13:52:30.287Z,100.00
2023-05-19T13:57:34.012Z,100.00
2023-05-19T14:02:37.990Z,100.00
2023-05-19T14:07:40.213Z,100.00
2023-05-19T14:12:55.112Z,100.00
2023-05-19T14:18:07.097Z,100.00
2023-05-19T14:23:09.483Z,100.00
2023-05-19T14:28:13.028Z,100.00
2023-05-19T14:33:15.244Z,100.00
2023-05-19T14:38:17.356Z,100.00
2023-05-19T14:43:20.736Z,100.00
2023-05-19T14:48:22.951Z,100.00
2023-05-19T14:53:25.049Z,100.00
2023-05-19T14:58:29.368Z,100.00
2023-05-19T15:03:31.777Z,100.00
2023-05-19T15:08:33.950Z,100.00
2023-05-19T15:13:37.353Z,100.00
2023-05-19T15:18:39.418Z,100.00
2023-05-19T15:23:41.489Z,100.00
2023-05-19T15:28:44.885Z,100.00
2023-05-19T15:33:46.970Z,100.00
2023-05-19T15:38:48.998Z,100.00
2023-05-19T15:43:53.516Z,100.00
2023-05-19T15:48:55.841Z,100.00
2023-05-19T15:53:57.881Z,100.00
2023-05-19T15:59:01.408Z,100.00
2023-05-19T16:04:04.057Z,100.00
2023-05-19T16:09:06.160Z,100.00
2023-05-19T16:14:09.586Z,100.00
2023-05-19T16:19:11.714Z,100.00
2023-05-19T16:24:14.559Z,100.00
2023-05-19T16:29:17.914Z,100.00
2023-05-19T16:34:19.936Z,100.00
2023-05-19T16:39:22.145Z,100.00
2023-05-19T16:44:25.666Z,100.00
2023-05-19T16:49:27.836Z,100.00
2023-05-19T16:54:30.390Z,100.00
2023-05-19T16:59:34.200Z,100.00
2023-05-19T17:04:36.289Z,100.00
2023-05-19T17:09:38.282Z,100.00
2023-05-19T17:14:43.445Z,100.00
2023-05-19T17:19:45.907Z,100.00
2023-05-19T17:24:48.338Z,100.00
2023-05-19T17:29:51.924Z,100.00
2023-05-19T17:34:54.342Z,100.00
2023-05-19T17:39:56.329Z,100.00
2023-05-19T17:44:59.776Z,100.00
2023-05-19T17:50:01.800Z,100.00
2023-05-19T17:55:04.798Z,100.00
2023-05-19T18:00:09.015Z,100.00
2023-05-19T18:05:12.429Z,100.00
2023-05-19T18:10:15.702Z,100.00
2023-05-19T18:15:19.232Z,100.00
2023-05-19T18:20:21.268Z,100.00
2023-05-19T18:25:23.446Z,100.00
2023-05-19T18:30:26.924Z,100.00
2023-05-19T18:35:29.015Z,100.00
2023-05-19T18:40:31.354Z,100.00
2023-05-19T18:45:36.472Z,100.00
2023-05-19T18:50:38.590Z,100.00
2023-05-19T18:55:40.736Z,100.00
2023-05-19T19:00:44.359Z,100.00
2023-05-19T19:05:53.125Z,100.00
2023-05-19T19:11:00.142Z,100.00
2023-05-19T19:16:03.742Z,100.00
2023-05-19T19:21:06.223Z,100.00
2023-05-19T19:26:09.511Z,100.00
2023-05-19T19:31:12.875Z,100.00
2023-05-19T19:36:14.975Z,100.00
2023-05-19T19:41:16.956Z,100.00
2023-05-19T19:46:20.437Z,100.00
2023-05-19T19:51:22.458Z,100.00
2023-05-19T19:56:27.301Z,100.00
2023-05-19T20:01:30.801Z,100.00
2023-05-19T20:06:33.324Z,100.00
2023-05-19T20:11:35.448Z,100.00
2023-05-19T20:16:40.420Z,100.00
2023-05-19T20:21:42.589Z,100.00
2023-05-19T20:26:44.595Z,100.00
2023-05-19T20:31:47.971Z,100.00
2023-05-19T20:36:50.029Z,100.00
2023-05-19T20:41:52.076Z,100.00
2023-05-19T20:46:55.525Z,100.00
2023-05-19T20:51:57.546Z,100.00
2023-05-19T20:56:59.731Z,100.00
2023-05-19T21:02:03.190Z,100.00
2023-05-19T21:07:05.523Z,100.00
2023-05-19T21:12:07.827Z,100.00
2023-05-19T21:17:11.395Z,100.00
2023-05-19T21:22:13.450Z,100.00
2023-05-19T21:27:15.675Z,100.00
2023-05-19T21:32:19.234Z,100.00
2023-05-19T21:37:21.653Z,100.00
2023-05-19T21:42:23.768Z,100.00
2023-05-19T21:47:27.245Z,100.00
2023-05-19T21:52:29.362Z,100.00
2023-05-19T21:57:31.449Z,100.00
2023-05-19T22:02:34.866Z,100.00
2023-05-19T22:07:37.592Z,100.00
2023-05-19T22:12:39.644Z,100.00
2023-05-19T22:17:43.102Z,100.00
2023-05-19T22:22:45.154Z,100.00
2023-05-19T22:27:47.161Z,100.00
2023-05-19T22:32:50.541Z,100.00
2023-05-19T22:37:52.615Z,100.00
2023-05-19T22:42:54.753Z,100.00
2023-05-19T22:47:58.162Z,100.00
2023-05-19T22:53:00.192Z,100.00
2023-05-19T22:58:02.309Z,100.00
2023-05-19T23:03:05.767Z,100.00
2023-05-19T23:08:07.902Z,100.00
2023-05-19T23:13:11.844Z,100.00
2023-05-19T23:18:15.327Z,100.00
2023-05-19T23:23:17.459Z,100.00
2023-05-19T23:28:19.478Z,100.00
2023-05-19T23:33:22.923Z,100.00
2023-05-19T23:38:25.597Z,100.00
2023-05-19T23:43:27.736Z,100.00
2023-05-19T23:48:31.498Z,100.00
2023-05-19T23:53:33.580Z,100.00
2023-05-19T23:58:35.592Z,82.98
